Alief, Texas
Current Conditions -  °F | °C
As of 11:53 PM on Saturday 20 Dec 2014 (Local Time) from KSGR Reporting Station
Overcast Overcast  
Wind Chill: 12°   Ceiling: 1900
Heat Index: 12°   Visibility: 10mi
Dew Point:   Wind: 7mph
Humidity: 80%   Direction: 20°NNE
Pressure: 30.17"   Gusts: NA
Location:  29.71°N, 95.6°W
Report Text: KSGR 210553Z 02006KT 10SM OVC019 12/08 A3017 RMK AO2 SLP220 T01170083 10122 20100 401330100 58001
Loading
Personal Weather Stations






























Interactive Weather Map New forecast layout! Learn more

10-Day Weather Forecast

Advertisements
Track Severe Weather on mobile